sensor_id;sensor_type;location;lat;lon;timestamp;temperature;humidity
1958;DHT22;979;51.076;13.748;2023-04-06T00:01:42;4.40;49.70
1958;DHT22;979;51.076;13.748;2023-04-06T00:04:10;4.40;49.70
1958;DHT22;979;51.076;13.748;2023-04-06T00:06:45;4.30;49.70
1958;DHT22;979;51.076;13.748;2023-04-06T00:09:13;4.30;49.80
1958;DHT22;979;51.076;13.748;2023-04-06T00:11:45;4.30;49.80
1958;DHT22;979;51.076;13.748;2023-04-06T00:14:13;4.30;49.90
1958;DHT22;979;51.076;13.748;2023-04-06T00:16:52;4.30;49.90
1958;DHT22;979;51.076;13.748;2023-04-06T00:19:20;4.30;50.00
1958;DHT22;979;51.076;13.748;2023-04-06T00:22:04;4.20;50.00
1958;DHT22;979;51.076;13.748;2023-04-06T00:24:32;4.20;50.00
1958;DHT22;979;51.076;13.748;2023-04-06T00:27:01;4.20;50.10
1958;DHT22;979;51.076;13.748;2023-04-06T00:29:32;4.20;50.30
1958;DHT22;979;51.076;13.748;2023-04-06T00:32:02;4.20;50.30
1958;DHT22;979;51.076;13.748;2023-04-06T00:34:31;4.10;50.40
1958;DHT22;979;51.076;13.748;2023-04-06T00:36:59;4.10;50.40
1958;DHT22;979;51.076;13.748;2023-04-06T00:39:30;4.00;50.30
1958;DHT22;979;51.076;13.748;2023-04-06T00:41:58;4.00;50.30
1958;DHT22;979;51.076;13.748;2023-04-06T00:44:27;3.90;50.30
1958;DHT22;979;51.076;13.748;2023-04-06T00:46:58;3.80;50.40
1958;DHT22;979;51.076;13.748;2023-04-06T00:49:27;3.80;50.30
1958;DHT22;979;51.076;13.748;2023-04-06T00:51:58;3.80;50.40
1958;DHT22;979;51.076;13.748;2023-04-06T00:54:26;3.70;50.30
1958;DHT22;979;51.076;13.748;2023-04-06T00:56:55;3.70;50.30
1958;DHT22;979;51.076;13.748;2023-04-06T00:59:28;3.70;50.30
1958;DHT22;979;51.076;13.748;2023-04-06T01:01:58;3.70;50.30
1958;DHT22;979;51.076;13.748;2023-04-06T01:04:38;3.70;50.40
1958;DHT22;979;51.076;13.748;2023-04-06T01:07:11;3.70;50.30
1958;DHT22;979;51.076;13.748;2023-04-06T01:09:48;3.70;50.40
1958;DHT22;979;51.076;13.748;2023-04-06T01:12:22;3.70;50.50
1958;DHT22;979;51.076;13.748;2023-04-06T01:14:50;3.70;50.50
1958;DHT22;979;51.076;13.748;2023-04-06T01:17:19;3.70;51.20
1958;DHT22;979;51.076;13.748;2023-04-06T01:19:49;3.70;50.50
1958;DHT22;979;51.076;13.748;2023-04-06T01:22:27;3.70;50.50
1958;DHT22;979;51.076;13.748;2023-04-06T01:24:59;3.70;50.60
1958;DHT22;979;51.076;13.748;2023-04-06T01:27:38;3.70;50.70
1958;DHT22;979;51.076;13.748;2023-04-06T01:30:21;3.70;50.70
1958;DHT22;979;51.076;13.748;2023-04-06T01:32:53;3.70;50.70
1958;DHT22;979;51.076;13.748;2023-04-06T01:35:35;3.70;51.30
1958;DHT22;979;51.076;13.748;2023-04-06T01:38:20;3.70;50.70
1958;DHT22;979;51.076;13.748;2023-04-06T01:40:49;3.70;50.70
1958;DHT22;979;51.076;13.748;2023-04-06T01:43:20;3.70;50.70
1958;DHT22;979;51.076;13.748;2023-04-06T01:46:04;3.60;50.70
1958;DHT22;979;51.076;13.748;2023-04-06T01:48:36;3.60;50.70
1958;DHT22;979;51.076;13.748;2023-04-06T01:51:18;3.60;50.80
1958;DHT22;979;51.076;13.748;2023-04-06T01:53:53;3.60;50.80
1958;DHT22;979;51.076;13.748;2023-04-06T01:56:29;3.60;50.90
1958;DHT22;979;51.076;13.748;2023-04-06T01:59:20;3.60;51.00
1958;DHT22;979;51.076;13.748;2023-04-06T02:01:49;3.60;51.00
1958;DHT22;979;51.076;13.748;2023-04-06T02:04:21;3.60;51.00
1958;DHT22;979;51.076;13.748;2023-04-06T02:06:54;3.50;51.10
1958;DHT22;979;51.076;13.748;2023-04-06T02:09:27;3.50;51.10
1958;DHT22;979;51.076;13.748;2023-04-06T02:11:55;3.50;51.20
1958;DHT22;979;51.076;13.748;2023-04-06T02:14:25;3.50;51.30
1958;DHT22;979;51.076;13.748;2023-04-06T02:16:57;3.50;51.20
1958;DHT22;979;51.076;13.748;2023-04-06T02:19:26;3.50;51.40
1958;DHT22;979;51.076;13.748;2023-04-06T02:21:54;3.40;51.40
1958;DHT22;979;51.076;13.748;2023-04-06T02:24:23;3.40;51.40
1958;DHT22;979;51.076;13.748;2023-04-06T02:26:53;3.40;51.60
1958;DHT22;979;51.076;13.748;2023-04-06T02:29:21;3.30;51.50
1958;DHT22;979;51.076;13.748;2023-04-06T02:31:50;3.30;51.70
1958;DHT22;979;51.076;13.748;2023-04-06T02:34:19;3.20;51.60
1958;DHT22;979;51.076;13.748;2023-04-06T02:36:50;3.20;51.60
1958;DHT22;979;51.076;13.748;2023-04-06T02:39:19;3.20;51.60
1958;DHT22;979;51.076;13.748;2023-04-06T02:41:48;3.10;51.70
1958;DHT22;979;51.076;13.748;2023-04-06T02:44:22;3.10;51.70
1958;DHT22;979;51.076;13.748;2023-04-06T02:46:50;3.10;51.70
1958;DHT22;979;51.076;13.748;2023-04-06T02:49:20;3.10;51.80
1958;DHT22;979;51.076;13.748;2023-04-06T02:51:52;3.00;51.80
1958;DHT22;979;51.076;13.748;2023-04-06T02:54:33;3.00;51.80
1958;DHT22;979;51.076;13.748;2023-04-06T02:57:03;3.00;51.90
1958;DHT22;979;51.076;13.748;2023-04-06T02:59:41;3.00;51.90
1958;DHT22;979;51.076;13.748;2023-04-06T03:02:18;2.90;52.00
1958;DHT22;979;51.076;13.748;2023-04-06T03:04:47;2.90;52.00
1958;DHT22;979;51.076;13.748;2023-04-06T03:07:24;2.90;52.00
1958;DHT22;979;51.076;13.748;2023-04-06T03:09:53;2.80;51.90
1958;DHT22;979;51.076;13.748;2023-04-06T03:12:21;2.80;51.90
1958;DHT22;979;51.076;13.748;2023-04-06T03:15:12;2.80;51.90
1958;DHT22;979;51.076;13.748;2023-04-06T03:17:45;2.70;51.90
1958;DHT22;979;51.076;13.748;2023-04-06T03:20:29;2.70;52.00
1958;DHT22;979;51.076;13.748;2023-04-06T03:22:58;2.60;51.90
1958;DHT22;979;51.076;13.748;2023-04-06T03:25:30;2.70;52.10
1958;DHT22;979;51.076;13.748;2023-04-06T03:28:02;2.60;52.20
1958;DHT22;979;51.076;13.748;2023-04-06T03:30:37;2.50;52.20
1958;DHT22;979;51.076;13.748;2023-04-06T03:33:05;2.60;52.50
1958;DHT22;979;51.076;13.748;2023-04-06T03:35:41;2.40;52.40
1958;DHT22;979;51.076;13.748;2023-04-06T03:38:12;2.40;52.40
1958;DHT22;979;51.076;13.748;2023-04-06T03:40:42;2.40;52.50
1958;DHT22;979;51.076;13.748;2023-04-06T03:43:13;2.30;52.50
1958;DHT22;979;51.076;13.748;2023-04-06T03:45:42;2.30;52.50
1958;DHT22;979;51.076;13.748;2023-04-06T03:48:12;2.30;52.60
1958;DHT22;979;51.076;13.748;2023-04-06T03:50:40;2.30;52.50
1958;DHT22;979;51.076;13.748;2023-04-06T03:53:09;2.30;52.50
1958;DHT22;979;51.076;13.748;2023-04-06T03:55:38;2.30;52.70
1958;DHT22;979;51.076;13.748;2023-04-06T03:58:06;2.30;52.70
1958;DHT22;979;51.076;13.748;2023-04-06T04:00:35;2.30;52.80
1958;DHT22;979;51.076;13.748;2023-04-06T04:03:04;2.20;52.80
1958;DHT22;979;51.076;13.748;2023-04-06T04:05:33;2.20;52.90
1958;DHT22;979;51.076;13.748;2023-04-06T04:08:04;2.20;52.90
1958;DHT22;979;51.076;13.748;2023-04-06T04:10:32;2.20;53.00
1958;DHT22;979;51.076;13.748;2023-04-06T04:13:01;2.20;53.10
1958;DHT22;979;51.076;13.748;2023-04-06T04:15:29;2.20;53.20
1958;DHT22;979;51.076;13.748;2023-04-06T04:17:58;2.20;53.30
1958;DHT22;979;51.076;13.748;2023-04-06T04:20:28;2.20;53.40
1958;DHT22;979;51.076;13.748;2023-04-06T04:22:59;2.10;53.40
1958;DHT22;979;51.076;13.748;2023-04-06T04:25:32;2.10;53.40
1958;DHT22;979;51.076;13.748;2023-04-06T04:28:01;2.20;53.60
1958;DHT22;979;51.076;13.748;2023-04-06T04:30:33;2.10;53.60
1958;DHT22;979;51.076;13.748;2023-04-06T04:33:06;2.10;53.60
1958;DHT22;979;51.076;13.748;2023-04-06T04:35:36;2.10;53.60
1958;DHT22;979;51.076;13.748;2023-04-06T04:38:06;2.10;54.20
1958;DHT22;979;51.076;13.748;2023-04-06T04:40:38;2.10;53.60
1958;DHT22;979;51.076;13.748;2023-04-06T04:43:10;2.10;53.60
1958;DHT22;979;51.076;13.748;2023-04-06T04:45:38;2.30;53.80
1958;DHT22;979;51.076;13.748;2023-04-06T04:48:29;2.10;53.60
1958;DHT22;979;51.076;13.748;2023-04-06T04:51:04;2.10;53.70
1958;DHT22;979;51.076;13.748;2023-04-06T04:53:46;2.10;53.70
1958;DHT22;979;51.076;13.748;2023-04-06T04:56:23;2.10;53.80
1958;DHT22;979;51.076;13.748;2023-04-06T04:58:57;2.10;53.90
1958;DHT22;979;51.076;13.748;2023-04-06T05:01:29;2.00;54.00
1958;DHT22;979;51.076;13.748;2023-04-06T05:04:13;2.00;54.00
1958;DHT22;979;51.076;13.748;2023-04-06T05:06:43;2.00;53.90
1958;DHT22;979;51.076;13.748;2023-04-06T05:09:15;2.10;53.90
1958;DHT22;979;51.076;13.748;2023-04-06T05:11:44;2.10;54.00
1958;DHT22;979;51.076;13.748;2023-04-06T05:14:15;2.30;54.00
1958;DHT22;979;51.076;13.748;2023-04-06T05:16:48;2.20;54.10
1958;DHT22;979;51.076;13.748;2023-04-06T05:19:23;2.30;54.30
1958;DHT22;979;51.076;13.748;2023-04-06T05:21:57;2.30;54.10
1958;DHT22;979;51.076;13.748;2023-04-06T05:24:26;2.30;54.40
1958;DHT22;979;51.076;13.748;2023-04-06T05:26:57;2.40;54.50
1958;DHT22;979;51.076;13.748;2023-04-06T05:29:28;2.40;54.40
1958;DHT22;979;51.076;13.748;2023-04-06T05:31:58;2.50;54.60
1958;DHT22;979;51.076;13.748;2023-04-06T05:34:26;2.50;54.80
1958;DHT22;979;51.076;13.748;2023-04-06T05:37:01;2.50;54.90
1958;DHT22;979;51.076;13.748;2023-04-06T05:39:32;2.60;55.20
1958;DHT22;979;51.076;13.748;2023-04-06T05:42:04;2.60;55.00
1958;DHT22;979;51.076;13.748;2023-04-06T05:44:51;2.70;55.10
1958;DHT22;979;51.076;13.748;2023-04-06T05:47:20;2.80;55.10
1958;DHT22;979;51.076;13.748;2023-04-06T05:49:59;2.80;55.30
1958;DHT22;979;51.076;13.748;2023-04-06T05:52:35;2.80;55.20
1958;DHT22;979;51.076;13.748;2023-04-06T05:55:07;3.00;55.40
1958;DHT22;979;51.076;13.748;2023-04-06T05:57:39;3.10;55.40
1958;DHT22;979;51.076;13.748;2023-04-06T06:00:20;3.10;55.50
1958;DHT22;979;51.076;13.748;2023-04-06T06:03:01;3.20;55.90
1958;DHT22;979;51.076;13.748;2023-04-06T06:05:33;3.40;56.70
1958;DHT22;979;51.076;13.748;2023-04-06T06:08:14;3.50;57.00
1958;DHT22;979;51.076;13.748;2023-04-06T06:10:44;3.70;56.80
1958;DHT22;979;51.076;13.748;2023-04-06T06:13:13;3.70;56.70
1958;DHT22;979;51.076;13.748;2023-04-06T06:15:45;3.80;56.90
1958;DHT22;979;51.076;13.748;2023-04-06T06:18:17;3.90;57.10
1958;DHT22;979;51.076;13.748;2023-04-06T06:20:52;3.90;56.90
1958;DHT22;979;51.076;13.748;2023-04-06T06:23:27;4.00;56.90
1958;DHT22;979;51.076;13.748;2023-04-06T06:25:59;4.10;57.50
1958;DHT22;979;51.076;13.748;2023-04-06T06:28:34;4.10;56.80
1958;DHT22;979;51.076;13.748;2023-04-06T06:31:09;4.10;56.80
1958;DHT22;979;51.076;13.748;2023-04-06T06:33:49;4.10;56.70
1958;DHT22;979;51.076;13.748;2023-04-06T06:36:19;4.40;57.60
1958;DHT22;979;51.076;13.748;2023-04-06T06:38:56;4.40;56.80
1958;DHT22;979;51.076;13.748;2023-04-06T06:41:27;4.40;56.70
1958;DHT22;979;51.076;13.748;2023-04-06T06:44:15;4.50;56.80
1958;DHT22;979;51.076;13.748;2023-04-06T06:47:08;4.60;56.80
1958;DHT22;979;51.076;13.748;2023-04-06T06:49:58;4.70;56.70
1958;DHT22;979;51.076;13.748;2023-04-06T06:52:43;4.90;56.90
1958;DHT22;979;51.076;13.748;2023-04-06T06:55:38;5.10;56.90
1958;DHT22;979;51.076;13.748;2023-04-06T06:58:22;5.20;57.00
1958;DHT22;979;51.076;13.748;2023-04-06T07:01:14;5.30;57.10
1958;DHT22;979;51.076;13.748;2023-04-06T07:04:38;5.50;57.10
1958;DHT22;979;51.076;13.748;2023-04-06T07:07:42;5.60;56.70
1958;DHT22;979;51.076;13.748;2023-04-06T07:10:40;5.70;56.70
1958;DHT22;979;51.076;13.748;2023-04-06T07:13:45;5.80;56.60
1958;DHT22;979;51.076;13.748;2023-04-06T07:16:25;6.10;56.60
1958;DHT22;979;51.076;13.748;2023-04-06T07:19:08;6.20;56.80
1958;DHT22;979;51.076;13.748;2023-04-06T07:21:40;6.30;56.80
1958;DHT22;979;51.076;13.748;2023-04-06T07:24:25;6.40;56.70
1958;DHT22;979;51.076;13.748;2023-04-06T07:27:18;6.50;56.50
1958;DHT22;979;51.076;13.748;2023-04-06T07:30:46;6.50;56.20
1958;DHT22;979;51.076;13.748;2023-04-06T07:33:34;6.70;56.40
1958;DHT22;979;51.076;13.748;2023-04-06T07:36:08;6.90;56.40
1958;DHT22;979;51.076;13.748;2023-04-06T07:38:36;7.00;56.20
1958;DHT22;979;51.076;13.748;2023-04-06T07:41:05;7.10;56.20
1958;DHT22;979;51.076;13.748;2023-04-06T07:43:37;7.20;56.10
1958;DHT22;979;51.076;13.748;2023-04-06T07:46:08;7.30;56.00
1958;DHT22;979;51.076;13.748;2023-04-06T07:48:39;7.40;56.00
1958;DHT22;979;51.076;13.748;2023-04-06T07:51:07;7.50;55.90
1958;DHT22;979;51.076;13.748;2023-04-06T07:53:42;7.60;55.90
1958;DHT22;979;51.076;13.748;2023-04-06T07:56:13;7.70;55.90
1958;DHT22;979;51.076;13.748;2023-04-06T07:58:44;7.90;56.00
1958;DHT22;979;51.076;13.748;2023-04-06T08:01:12;8.00;55.70
1958;DHT22;979;51.076;13.748;2023-04-06T08:03:45;8.10;55.60
1958;DHT22;979;51.076;13.748;2023-04-06T08:06:14;8.30;55.70
1958;DHT22;979;51.076;13.748;2023-04-06T08:08:44;8.40;55.60
1958;DHT22;979;51.076;13.748;2023-04-06T08:11:13;8.60;55.50
1958;DHT22;979;51.076;13.748;2023-04-06T08:13:44;8.70;55.40
1958;DHT22;979;51.076;13.748;2023-04-06T08:16:15;8.70;55.10
1958;DHT22;979;51.076;13.748;2023-04-06T08:18:44;9.00;55.20
1958;DHT22;979;51.076;13.748;2023-04-06T08:21:13;9.10;55.20
1958;DHT22;979;51.076;13.748;2023-04-06T08:23:41;9.30;55.10
1958;DHT22;979;51.076;13.748;2023-04-06T08:26:12;9.40;55.00
1958;DHT22;979;51.076;13.748;2023-04-06T08:28:40;9.50;54.70
1958;DHT22;979;51.076;13.748;2023-04-06T08:31:14;9.60;54.10
1958;DHT22;979;51.076;13.748;2023-04-06T08:33:42;9.70;53.80
1958;DHT22;979;51.076;13.748;2023-04-06T08:36:14;9.80;53.40
1958;DHT22;979;51.076;13.748;2023-04-06T08:38:43;9.90;53.00
1958;DHT22;979;51.076;13.748;2023-04-06T08:41:13;9.90;52.70
1958;DHT22;979;51.076;13.748;2023-04-06T08:44:05;10.00;51.20
1958;DHT22;979;51.076;13.748;2023-04-06T08:46:38;10.00;50.90
1958;DHT22;979;51.076;13.748;2023-04-06T08:49:07;10.10;50.70
1958;DHT22;979;51.076;13.748;2023-04-06T08:51:37;10.20;50.40
1958;DHT22;979;51.076;13.748;2023-04-06T08:54:05;10.30;50.60
1958;DHT22;979;51.076;13.748;2023-04-06T08:56:38;10.50;50.60
1958;DHT22;979;51.076;13.748;2023-04-06T08:59:08;10.60;50.20
1958;DHT22;979;51.076;13.748;2023-04-06T09:01:42;10.70;49.90
1958;DHT22;979;51.076;13.748;2023-04-06T09:04:13;10.90;49.80
1958;DHT22;979;51.076;13.748;2023-04-06T09:06:43;11.00;49.10
1958;DHT22;979;51.076;13.748;2023-04-06T09:09:14;11.00;48.90
1958;DHT22;979;51.076;13.748;2023-04-06T09:11:44;11.10;48.60
1958;DHT22;979;51.076;13.748;2023-04-06T09:14:36;11.00;48.30
1958;DHT22;979;51.076;13.748;2023-04-06T09:17:07;11.20;47.80
1958;DHT22;979;51.076;13.748;2023-04-06T09:19:46;11.30;47.90
1958;DHT22;979;51.076;13.748;2023-04-06T09:22:18;11.40;47.40
1958;DHT22;979;51.076;13.748;2023-04-06T09:24:54;11.50;47.40
1958;DHT22;979;51.076;13.748;2023-04-06T09:27:34;11.50;47.00
1958;DHT22;979;51.076;13.748;2023-04-06T09:30:05;11.60;46.40
1958;DHT22;979;51.076;13.748;2023-04-06T09:32:46;11.50;46.30
1958;DHT22;979;51.076;13.748;2023-04-06T09:35:21;11.70;45.50
1958;DHT22;979;51.076;13.748;2023-04-06T09:37:51;11.60;45.30
1958;DHT22;979;51.076;13.748;2023-04-06T09:40:20;11.80;45.40
1958;DHT22;979;51.076;13.748;2023-04-06T09:42:50;12.00;45.30
1958;DHT22;979;51.076;13.748;2023-04-06T09:45:20;11.90;44.80
1958;DHT22;979;51.076;13.748;2023-04-06T09:47:50;12.00;44.60
1958;DHT22;979;51.076;13.748;2023-04-06T09:50:21;12.10;44.40
1958;DHT22;979;51.076;13.748;2023-04-06T09:52:51;12.20;44.20
1958;DHT22;979;51.076;13.748;2023-04-06T09:55:30;12.30;43.40
1958;DHT22;979;51.076;13.748;2023-04-06T09:58:04;12.30;43.50
1958;DHT22;979;51.076;13.748;2023-04-06T10:00:40;12.40;43.30
1958;DHT22;979;51.076;13.748;2023-04-06T10:03:18;12.50;43.40
1958;DHT22;979;51.076;13.748;2023-04-06T10:05:52;12.60;42.80
1958;DHT22;979;51.076;13.748;2023-04-06T10:08:27;12.70;42.40
1958;DHT22;979;51.076;13.748;2023-04-06T10:10:59;12.80;42.10
1958;DHT22;979;51.076;13.748;2023-04-06T10:13:30;12.90;42.10
1958;DHT22;979;51.076;13.748;2023-04-06T10:16:00;13.00;42.10
1958;DHT22;979;51.076;13.748;2023-04-06T10:18:30;13.20;41.70
1958;DHT22;979;51.076;13.748;2023-04-06T10:21:06;13.30;41.60
1958;DHT22;979;51.076;13.748;2023-04-06T10:23:37;13.50;41.30
1958;DHT22;979;51.076;13.748;2023-04-06T10:26:13;13.60;40.80
1958;DHT22;979;51.076;13.748;2023-04-06T10:28:46;13.90;40.60
1958;DHT22;979;51.076;13.748;2023-04-06T10:31:14;14.10;40.50
1958;DHT22;979;51.076;13.748;2023-04-06T10:33:53;14.30;40.70
1958;DHT22;979;51.076;13.748;2023-04-06T10:36:24;14.50;40.60
1958;DHT22;979;51.076;13.748;2023-04-06T10:38:57;14.60;40.00
1958;DHT22;979;51.076;13.748;2023-04-06T10:41:32;14.60;39.80
1958;DHT22;979;51.076;13.748;2023-04-06T10:44:01;14.80;39.80
1958;DHT22;979;51.076;13.748;2023-04-06T10:46:31;14.90;39.70
1958;DHT22;979;51.076;13.748;2023-04-06T10:49:11;15.00;39.50
1958;DHT22;979;51.076;13.748;2023-04-06T10:51:40;15.10;39.10
1958;DHT22;979;51.076;13.748;2023-04-06T10:54:09;15.20;39.10
1958;DHT22;979;51.076;13.748;2023-04-06T10:56:39;15.20;38.90
1958;DHT22;979;51.076;13.748;2023-04-06T10:59:07;15.20;38.70
1958;DHT22;979;51.076;13.748;2023-04-06T11:01:36;15.10;38.40
1958;DHT22;979;51.076;13.748;2023-04-06T11:04:04;15.10;38.10
1958;DHT22;979;51.076;13.748;2023-04-06T11:06:39;15.00;38.10
1958;DHT22;979;51.076;13.748;2023-04-06T11:09:08;15.00;37.80
1958;DHT22;979;51.076;13.748;2023-04-06T11:11:38;14.90;37.90
1958;DHT22;979;51.076;13.748;2023-04-06T11:14:10;15.00;37.80
1958;DHT22;979;51.076;13.748;2023-04-06T11:16:38;15.00;37.90
1958;DHT22;979;51.076;13.748;2023-04-06T11:19:06;15.00;38.00
1958;DHT22;979;51.076;13.748;2023-04-06T11:21:35;15.00;37.80
1958;DHT22;979;51.076;13.748;2023-04-06T11:24:08;15.00;37.70
1958;DHT22;979;51.076;13.748;2023-04-06T11:26:41;14.90;37.30
1958;DHT22;979;51.076;13.748;2023-04-06T11:29:11;14.90;37.40
1958;DHT22;979;51.076;13.748;2023-04-06T11:31:40;14.90;37.40
1958;DHT22;979;51.076;13.748;2023-04-06T11:34:11;14.90;37.40
1958;DHT22;979;51.076;13.748;2023-04-06T11:36:42;14.90;37.10
1958;DHT22;979;51.076;13.748;2023-04-06T11:39:22;15.40;38.20
1958;DHT22;979;51.076;13.748;2023-04-06T11:41:52;16.60;38.50
1958;DHT22;979;51.076;13.748;2023-04-06T11:44:29;18.00;38.90
1958;DHT22;979;51.076;13.748;2023-04-06T11:47:02;19.50;37.90
1958;DHT22;979;51.076;13.748;2023-04-06T11:49:37;20.80;37.80
1958;DHT22;979;51.076;13.748;2023-04-06T11:52:14;22.00;37.10
1958;DHT22;979;51.076;13.748;2023-04-06T12:02:19;25.00;34.30
1958;DHT22;979;51.076;13.748;2023-04-06T12:04:48;26.20;33.00
1958;DHT22;979;51.076;13.748;2023-04-06T12:07:32;27.00;33.40
1958;DHT22;979;51.076;13.748;2023-04-06T12:10:16;27.90;32.90
1958;DHT22;979;51.076;13.748;2023-04-06T12:13:02;29.00;32.30
1958;DHT22;979;51.076;13.748;2023-04-06T12:15:39;29.90;31.90
1958;DHT22;979;51.076;13.748;2023-04-06T12:18:16;30.80;31.50
1958;DHT22;979;51.076;13.748;2023-04-06T12:20:46;31.70;30.50
1958;DHT22;979;51.076;13.748;2023-04-06T12:23:15;32.40;30.50
1958;DHT22;979;51.076;13.748;2023-04-06T12:25:43;32.80;29.90
1958;DHT22;979;51.076;13.748;2023-04-06T12:28:12;33.00;29.20
1958;DHT22;979;51.076;13.748;2023-04-06T12:30:41;33.00;28.90
1958;DHT22;979;51.076;13.748;2023-04-06T12:33:10;32.50;28.10
1958;DHT22;979;51.076;13.748;2023-04-06T12:35:39;32.50;28.40
1958;DHT22;979;51.076;13.748;2023-04-06T12:38:07;32.60;28.30
1958;DHT22;979;51.076;13.748;2023-04-06T12:40:37;33.00;28.40
1958;DHT22;979;51.076;13.748;2023-04-06T12:43:06;33.40;27.90
1958;DHT22;979;51.076;13.748;2023-04-06T12:45:37;33.60;27.90
1958;DHT22;979;51.076;13.748;2023-04-06T12:48:08;33.60;27.60
1958;DHT22;979;51.076;13.748;2023-04-06T12:50:40;32.60;26.80
1958;DHT22;979;51.076;13.748;2023-04-06T12:53:11;31.40;26.70
1958;DHT22;979;51.076;13.748;2023-04-06T12:55:56;31.20;27.50
1958;DHT22;979;51.076;13.748;2023-04-06T12:58:25;31.20;27.50
1958;DHT22;979;51.076;13.748;2023-04-06T13:00:58;31.30;27.40
1958;DHT22;979;51.076;13.748;2023-04-06T13:03:30;31.70;27.50
1958;DHT22;979;51.076;13.748;2023-04-06T13:06:00;32.00;27.30
1958;DHT22;979;51.076;13.748;2023-04-06T13:08:29;32.30;27.40
1958;DHT22;979;51.076;13.748;2023-04-06T13:10:57;32.80;27.50
1958;DHT22;979;51.076;13.748;2023-04-06T13:13:29;33.20;27.20
1958;DHT22;979;51.076;13.748;2023-04-06T13:16:00;33.40;26.90
1958;DHT22;979;51.076;13.748;2023-04-06T13:18:29;33.00;26.50
1958;DHT22;979;51.076;13.748;2023-04-06T13:21:08;32.00;26.30
1958;DHT22;979;51.076;13.748;2023-04-06T13:23:39;31.10;26.20
1958;DHT22;979;51.076;13.748;2023-04-06T13:26:19;30.40;26.40
1958;DHT22;979;51.076;13.748;2023-04-06T13:28:48;30.20;26.80
1958;DHT22;979;51.076;13.748;2023-04-06T13:31:19;30.40;26.80
1958;DHT22;979;51.076;13.748;2023-04-06T13:33:51;30.60;26.90
1958;DHT22;979;51.076;13.748;2023-04-06T13:36:21;30.90;26.90
1958;DHT22;979;51.076;13.748;2023-04-06T13:38:51;31.30;26.80
1958;DHT22;979;51.076;13.748;2023-04-06T13:41:20;31.70;26.90
1958;DHT22;979;51.076;13.748;2023-04-06T13:43:49;32.10;26.90
1958;DHT22;979;51.076;13.748;2023-04-06T13:46:22;32.40;26.70
1958;DHT22;979;51.076;13.748;2023-04-06T13:48:52;32.60;26.60
1958;DHT22;979;51.076;13.748;2023-04-06T13:51:23;32.70;26.30
1958;DHT22;979;51.076;13.748;2023-04-06T13:53:53;32.50;26.20
1958;DHT22;979;51.076;13.748;2023-04-06T13:56:22;32.30;26.30
1958;DHT22;979;51.076;13.748;2023-04-06T13:58:53;32.60;26.50
1958;DHT22;979;51.076;13.748;2023-04-06T14:01:22;32.90;26.20
1958;DHT22;979;51.076;13.748;2023-04-06T14:03:53;32.90;26.00
1958;DHT22;979;51.076;13.748;2023-04-06T14:06:27;32.80;26.00
1958;DHT22;979;51.076;13.748;2023-04-06T14:09:10;32.90;26.00
1958;DHT22;979;51.076;13.748;2023-04-06T14:11:56;32.80;26.10
1958;DHT22;979;51.076;13.748;2023-04-06T14:14:24;32.80;26.10
1958;DHT22;979;51.076;13.748;2023-04-06T15:01:34;30.10;25.00
1958;DHT22;979;51.076;13.748;2023-04-06T15:04:04;28.30;24.70
1958;DHT22;979;51.076;13.748;2023-04-06T15:06:33;26.70;24.80
1958;DHT22;979;51.076;13.748;2023-04-06T15:09:02;25.20;25.30
1958;DHT22;979;51.076;13.748;2023-04-06T15:11:30;24.00;25.40
1958;DHT22;979;51.076;13.748;2023-04-06T15:14:01;22.70;25.70
1958;DHT22;979;51.076;13.748;2023-04-06T15:16:31;21.70;26.20
1958;DHT22;979;51.076;13.748;2023-04-06T15:19:00;20.80;25.90
1958;DHT22;979;51.076;13.748;2023-04-06T15:21:29;19.90;26.00
1958;DHT22;979;51.076;13.748;2023-04-06T15:24:01;19.20;26.30
1958;DHT22;979;51.076;13.748;2023-04-06T15:26:38;18.70;26.50
1958;DHT22;979;51.076;13.748;2023-04-06T15:29:06;18.20;26.70
1958;DHT22;979;51.076;13.748;2023-04-06T15:31:36;17.80;26.90
1958;DHT22;979;51.076;13.748;2023-04-06T15:34:09;17.50;27.10
1958;DHT22;979;51.076;13.748;2023-04-06T15:36:38;17.20;27.40
1958;DHT22;979;51.076;13.748;2023-04-06T15:39:07;17.20;27.80
1958;DHT22;979;51.076;13.748;2023-04-06T15:41:36;17.80;28.40
1958;DHT22;979;51.076;13.748;2023-04-06T15:44:04;18.60;28.70
1958;DHT22;979;51.076;13.748;2023-04-06T15:46:33;19.60;28.70
1958;DHT22;979;51.076;13.748;2023-04-06T15:49:06;20.40;29.30
1958;DHT22;979;51.076;13.748;2023-04-06T15:51:36;21.30;28.40
1958;DHT22;979;51.076;13.748;2023-04-06T15:54:09;22.00;28.40
1958;DHT22;979;51.076;13.748;2023-04-06T15:56:37;22.40;28.20
1958;DHT22;979;51.076;13.748;2023-04-06T15:59:06;22.80;28.20
1958;DHT22;979;51.076;13.748;2023-04-06T16:01:35;23.00;28.20
1958;DHT22;979;51.076;13.748;2023-04-06T16:04:10;23.40;28.80
1958;DHT22;979;51.076;13.748;2023-04-06T16:06:39;23.80;28.60
1958;DHT22;979;51.076;13.748;2023-04-06T16:09:08;24.20;28.60
1958;DHT22;979;51.076;13.748;2023-04-06T16:11:38;24.50;28.30
1958;DHT22;979;51.076;13.748;2023-04-06T16:14:07;24.50;28.00
1958;DHT22;979;51.076;13.748;2023-04-06T16:16:37;24.50;28.00
1958;DHT22;979;51.076;13.748;2023-04-06T16:19:14;24.30;27.80
1958;DHT22;979;51.076;13.748;2023-04-06T16:21:45;24.20;27.80
1958;DHT22;979;51.076;13.748;2023-04-06T16:24:17;24.30;28.00
1958;DHT22;979;51.076;13.748;2023-04-06T16:26:58;24.20;27.90
1958;DHT22;979;51.076;13.748;2023-04-06T16:29:29;23.90;27.50
1958;DHT22;979;51.076;13.748;2023-04-06T16:31:58;23.60;28.10
1958;DHT22;979;51.076;13.748;2023-04-06T16:55:31;22.10;27.60
1958;DHT22;979;51.076;13.748;2023-04-06T17:02:23;20.90;27.60
1958;DHT22;979;51.076;13.748;2023-04-06T17:20:21;17.90;27.70
1958;DHT22;979;51.076;13.748;2023-04-06T17:56:46;13.40;30.60
1958;DHT22;979;51.076;13.748;2023-04-06T17:59:25;13.20;30.80
1958;DHT22;979;51.076;13.748;2023-04-06T18:02:17;12.90;31.00
1958;DHT22;979;51.076;13.748;2023-04-06T18:05:03;12.80;31.40
1958;DHT22;979;51.076;13.748;2023-04-06T18:07:50;12.60;31.10
1958;DHT22;979;51.076;13.748;2023-04-06T18:10:35;12.40;31.00
1958;DHT22;979;51.076;13.748;2023-04-06T18:13:38;12.30;31.20
1958;DHT22;979;51.076;13.748;2023-04-06T18:16:33;12.10;31.60
1958;DHT22;979;51.076;13.748;2023-04-06T18:19:07;12.00;32.00
1958;DHT22;979;51.076;13.748;2023-04-06T18:21:46;11.90;32.20
1958;DHT22;979;51.076;13.748;2023-04-06T18:24:18;12.00;31.90
1958;DHT22;979;51.076;13.748;2023-04-06T18:27:04;11.70;32.30
1958;DHT22;979;51.076;13.748;2023-04-06T18:29:57;11.60;32.60
1958;DHT22;979;51.076;13.748;2023-04-06T18:32:27;11.40;32.50
1958;DHT22;979;51.076;13.748;2023-04-06T18:34:56;11.30;32.50
1958;DHT22;979;51.076;13.748;2023-04-06T18:37:25;11.30;33.00
1958;DHT22;979;51.076;13.748;2023-04-06T18:39:53;11.20;32.90
1958;DHT22;979;51.076;13.748;2023-04-06T18:42:22;10.90;32.90
1958;DHT22;979;51.076;13.748;2023-04-06T18:44:53;10.90;33.50
1958;DHT22;979;51.076;13.748;2023-04-06T18:47:23;10.80;33.70
1958;DHT22;979;51.076;13.748;2023-04-06T18:49:52;10.70;33.80
1958;DHT22;979;51.076;13.748;2023-04-06T18:52:20;10.60;34.00
1958;DHT22;979;51.076;13.748;2023-04-06T18:54:48;10.50;33.80
1958;DHT22;979;51.076;13.748;2023-04-06T18:57:20;10.40;33.90